createdAt,value
2019-01-24T00:00:12.861Z,83.13
2019-01-24T00:01:12.811Z,82.67
2019-01-24T00:02:12.823Z,82.99
2019-01-24T00:03:12.794Z,83.73
2019-01-24T00:04:16.746Z,83.84
2019-01-24T00:05:12.767Z,83.66
2019-01-24T00:06:12.763Z,83.52
2019-01-24T00:07:12.811Z,83.34
2019-01-24T00:08:12.738Z,83.09
2019-01-24T00:09:12.723Z,83.34
2019-01-24T00:10:12.712Z,83.09
2019-01-24T00:11:12.706Z,83.41
2019-01-24T00:12:12.716Z,82.89
2019-01-24T00:13:12.704Z,83.09
2019-01-24T00:14:12.696Z,83.24
2019-01-24T00:15:12.662Z,83.62
2019-01-24T00:16:12.699Z,82.89
2019-01-24T00:17:12.636Z,83.09
2019-01-24T00:18:12.672Z,82.71
2019-01-24T00:19:12.621Z,83.20
2019-01-24T00:20:12.606Z,83.24
2019-01-24T00:21:12.607Z,83.24
2019-01-24T00:22:12.582Z,83.20
2019-01-24T00:23:12.598Z,83.24
2019-01-24T00:24:12.562Z,83.66
2019-01-24T00:25:12.583Z,83.52
2019-01-24T00:26:12.541Z,83.77
2019-01-24T00:27:12.542Z,83.66
2019-01-24T00:28:12.521Z,83.56
2019-01-24T00:29:12.508Z,83.77
2019-01-24T00:30:12.529Z,83.45
2019-01-24T00:31:12.487Z,83.56
2019-01-24T00:32:12.477Z,83.24
2019-01-24T00:33:12.483Z,83.56
2019-01-24T00:34:12.454Z,83.45
2019-01-24T00:35:12.468Z,83.77
2019-01-24T00:36:12.430Z,83.73
2019-01-24T00:37:12.423Z,83.77
2019-01-24T00:38:12.412Z,83.66
2019-01-24T00:39:12.436Z,83.03
2019-01-24T00:40:12.412Z,82.92
2019-01-24T00:41:12.377Z,83.87
2019-01-24T00:42:12.369Z,83.77
2019-01-24T00:43:12.359Z,83.49
2019-01-24T00:44:12.348Z,82.86
2019-01-24T00:45:12.378Z,82.96
2019-01-24T00:46:12.341Z,83.49
2019-01-24T00:47:12.313Z,83.34
2019-01-24T00:48:12.300Z,83.81
2019-01-24T00:49:12.292Z,83.28
2019-01-24T00:50:12.281Z,83.28
2019-01-24T00:51:12.294Z,83.28
2019-01-24T00:52:12.285Z,82.86
2019-01-24T00:53:12.265Z,83.91
2019-01-24T00:54:12.235Z,83.38
2019-01-24T00:55:12.227Z,84.55
2019-01-24T00:56:12.237Z,84.23
2019-01-24T00:57:12.201Z,84.23
2019-01-24T00:58:12.194Z,84.30
2019-01-24T00:59:12.180Z,84.23
2019-01-24T01:00:12.191Z,84.09
2019-01-24T01:01:12.162Z,84.09
2019-01-24T01:02:12.170Z,84.23
2019-01-24T01:03:12.139Z,84.23
2019-01-24T01:04:12.169Z,84.44
2019-01-24T01:05:12.120Z,83.28
2019-01-24T01:06:12.110Z,84.23
2019-01-24T01:07:12.121Z,84.23
2019-01-24T01:08:12.084Z,84.23
2019-01-24T01:09:12.133Z,84.34
2019-01-24T01:10:12.063Z,84.12
2019-01-24T01:11:12.078Z,84.01
2019-01-24T01:12:12.038Z,84.12
2019-01-24T01:13:12.031Z,84.34
2019-01-24T01:14:12.040Z,84.23
2019-01-24T01:15:12.032Z,84.34
2019-01-24T01:16:12.000Z,84.44
2019-01-24T01:17:13.369Z,84.12
2019-01-24T01:18:11.981Z,84.34
2019-01-24T01:19:11.960Z,84.34
2019-01-24T01:20:11.985Z,83.53
2019-01-24T01:21:11.946Z,84.69
2019-01-24T01:22:11.931Z,84.38
2019-01-24T01:23:11.932Z,84.44
2019-01-24T01:24:11.914Z,84.06
2019-01-24T01:25:11.941Z,84.38
2019-01-24T01:26:11.889Z,84.48
2019-01-24T01:27:11.879Z,84.27
2019-01-24T01:28:11.883Z,84.16
2019-01-24T01:29:11.852Z,84.38
2019-01-24T01:30:11.875Z,84.38
2019-01-24T01:31:11.832Z,84.48
2019-01-24T01:32:11.823Z,84.23
2019-01-24T01:33:11.821Z,84.01
2019-01-24T01:34:11.805Z,84.27
2019-01-24T01:35:11.826Z,84.27
2019-01-24T01:36:11.806Z,84.23
2019-01-24T01:37:11.767Z,84.16
2019-01-24T01:38:11.766Z,84.34
2019-01-24T01:39:11.749Z,84.23
2019-01-24T01:40:11.734Z,84.16
2019-01-24T01:41:11.760Z,84.48
2019-01-24T01:42:11.711Z,84.16
2019-01-24T01:43:11.701Z,84.48
2019-01-24T01:44:11.693Z,84.48
2019-01-24T01:45:11.679Z,83.53
2019-01-24T01:46:11.714Z,83.31
2019-01-24T01:47:11.688Z,84.27
2019-01-24T01:48:11.648Z,84.38
2019-01-24T01:49:11.636Z,84.59
2019-01-24T01:50:11.623Z,84.59
2019-01-24T01:51:11.613Z,84.59
2019-01-24T01:52:11.631Z,84.31
2019-01-24T01:53:11.597Z,83.56
2019-01-24T01:54:11.594Z,84.09
2019-01-24T01:55:11.572Z,83.78
2019-01-24T01:56:11.567Z,83.25
2019-01-24T01:57:11.574Z,83.14
2019-01-24T01:58:11.562Z,83.46
2019-01-24T01:59:11.537Z,83.35
2019-01-24T02:00:11.521Z,83.14
2019-01-24T02:01:11.528Z,83.25
2019-01-24T02:02:11.495Z,83.67
2019-01-24T02:03:11.512Z,83.99
2019-01-24T02:04:11.471Z,83.88
2019-01-24T02:05:11.464Z,83.71
2019-01-24T02:06:11.453Z,83.56
2019-01-24T02:07:11.464Z,83.56
2019-01-24T02:08:11.469Z,83.14
2019-01-24T02:09:11.420Z,83.25
2019-01-24T02:10:11.410Z,83.03
2019-01-24T02:11:11.401Z,82.82
2019-01-24T02:12:11.384Z,83.18
2019-01-24T02:13:11.412Z,82.82
2019-01-24T02:14:11.367Z,83.03
2019-01-24T02:15:11.390Z,83.14
2019-01-24T02:16:11.346Z,82.82
2019-01-24T02:17:11.334Z,83.14
2019-01-24T02:18:11.337Z,83.88
2019-01-24T02:19:11.314Z,83.56
2019-01-24T02:20:11.303Z,83.56
2019-01-24T02:21:11.323Z,83.67
2019-01-24T02:22:11.282Z,83.78
2019-01-24T02:23:11.286Z,83.99
2019-01-24T02:24:11.258Z,84.09
2019-01-24T02:25:11.247Z,83.78
2019-01-24T02:26:11.269Z,83.67
2019-01-24T02:27:11.231Z,83.46
2019-01-24T02:28:11.214Z,83.78
2019-01-24T02:29:11.204Z,83.39
2019-01-24T02:30:11.198Z,82.93
2019-01-24T02:31:11.207Z,83.88
2019-01-24T02:32:11.171Z,83.88
2019-01-24T02:33:11.182Z,84.03
2019-01-24T02:34:11.163Z,83.50
2019-01-24T02:35:11.139Z,83.56
2019-01-24T02:36:11.166Z,84.03
2019-01-24T02:37:11.121Z,83.50
2019-01-24T02:38:11.110Z,83.92
2019-01-24T02:39:11.098Z,83.71
2019-01-24T02:40:11.086Z,84.34
2019-01-24T02:41:11.091Z,84.45
2019-01-24T02:42:11.061Z,84.34
2019-01-24T02:43:11.100Z,84.45
2019-01-24T02:44:11.042Z,84.34
2019-01-24T02:45:11.033Z,84.23
2019-01-24T02:46:11.049Z,84.52
2019-01-24T02:47:11.008Z,84.13
2019-01-24T02:48:11.003Z,84.45
2019-01-24T02:49:11.025Z,84.34
2019-01-24T02:50:10.977Z,84.34
2019-01-24T02:51:10.987Z,84.56
2019-01-24T02:52:10.960Z,84.56
2019-01-24T02:53:11.052Z,84.23
2019-01-24T02:54:10.940Z,84.23
2019-01-24T02:55:10.925Z,84.45
2019-01-24T02:56:10.941Z,84.20
2019-01-24T02:57:10.901Z,84.31
2019-01-24T02:58:10.960Z,84.23
2019-01-24T02:59:10.882Z,84.23
2019-01-24T03:00:10.870Z,84.41
2019-01-24T03:01:10.888Z,84.20
2019-01-24T03:02:10.850Z,84.20
2019-01-24T03:03:10.836Z,84.45
2019-01-24T03:04:10.852Z,84.77
2019-01-24T03:05:10.816Z,84.34
2019-01-24T03:06:10.842Z,85.36
2019-01-24T03:07:10.824Z,85.05
2019-01-24T03:08:10.789Z,84.52
2019-01-24T03:09:10.773Z,84.41
2019-01-24T03:10:10.764Z,84.52
2019-01-24T03:11:10.768Z,84.73
2019-01-24T03:12:10.761Z,84.41
2019-01-24T03:13:10.746Z,84.20
2019-01-24T03:14:10.744Z,84.45
2019-01-24T03:15:10.711Z,84.73
2019-01-24T03:16:10.722Z,84.13
2019-01-24T03:17:10.688Z,84.23
2019-01-24T03:18:10.677Z,84.56
2019-01-24T03:19:10.690Z,84.34
2019-01-24T03:20:10.654Z,84.34
2019-01-24T03:21:10.675Z,84.66
2019-01-24T03:22:10.635Z,84.56
2019-01-24T03:23:10.623Z,84.66
2019-01-24T03:24:10.612Z,85.30
2019-01-24T03:25:10.615Z,84.66
2019-01-24T03:26:10.619Z,84.45
2019-01-24T03:27:10.579Z,85.30
2019-01-24T03:28:10.572Z,85.09
2019-01-24T03:29:10.560Z,86.15
2019-01-24T03:30:10.601Z,85.83
2019-01-24T03:31:10.549Z,85.09
2019-01-24T03:32:10.576Z,85.19
2019-01-24T03:33:10.667Z,85.72
2019-01-24T03:34:10.504Z,85.30
2019-01-24T03:35:10.496Z,85.61
2019-01-24T03:36:10.528Z,85.30
2019-01-24T03:37:10.473Z,85.09
2019-01-24T03:38:10.470Z,85.30
2019-01-24T03:39:10.473Z,85.36
2019-01-24T03:40:10.447Z,85.83
2019-01-24T03:41:10.431Z,85.61
2019-01-24T03:42:10.422Z,85.47
2019-01-24T03:43:10.433Z,85.83
2019-01-24T03:44:10.404Z,85.58
2019-01-24T03:45:10.394Z,85.79
2019-01-24T03:46:10.376Z,85.69
2019-01-24T03:47:10.362Z,85.16
2019-01-24T03:48:10.403Z,84.98
2019-01-24T03:49:10.347Z,84.48
2019-01-24T03:50:10.332Z,84.88
2019-01-24T03:51:10.345Z,85.41
2019-01-24T03:52:10.382Z,85.61
2019-01-24T03:53:10.304Z,86.15
2019-01-24T03:54:10.321Z,85.61
2019-01-24T03:55:10.285Z,85.41
2019-01-24T03:56:10.286Z,85.83
2019-01-24T03:57:10.256Z,85.83
2019-01-24T03:58:10.246Z,84.88
2019-01-24T03:59:10.283Z,85.72
2019-01-24T04:00:10.231Z,84.48
2019-01-24T04:01:10.214Z,84.45
2019-01-24T04:02:10.201Z,84.91
2019-01-24T04:03:10.220Z,84.45
2019-01-24T04:04:10.183Z,84.48
2019-01-24T04:05:12.027Z,85.02
2019-01-24T04:06:10.158Z,84.98
2019-01-24T04:07:10.151Z,85.09
2019-01-24T04:08:10.181Z,85.72
2019-01-24T04:09:10.130Z,85.51
2019-01-24T04:10:10.116Z,85.44
2019-01-24T04:11:10.132Z,84.66
2019-01-24T04:12:10.096Z,84.98
2019-01-24T04:13:10.112Z,84.56
2019-01-24T04:14:10.088Z,84.66
2019-01-24T04:15:10.065Z,85.94
2019-01-24T04:16:10.074Z,85.61
2019-01-24T04:17:10.041Z,85.83
2019-01-24T04:18:10.036Z,85.61
2019-01-24T04:19:10.021Z,85.09
2019-01-24T04:20:10.010Z,85.19
2019-01-24T04:21:10.032Z,85.19
2019-01-24T04:22:10.004Z,85.19
2019-01-24T04:23:09.998Z,85.51
2019-01-24T04:24:09.994Z,85.51
2019-01-24T04:25:09.957Z,85.61
2019-01-24T04:26:09.942Z,85.36
2019-01-24T04:27:09.947Z,85.16
2019-01-24T04:28:09.952Z,84.98
2019-01-24T04:29:09.912Z,84.98
2019-01-24T04:30:09.903Z,85.30
2019-01-24T04:31:09.913Z,85.94
2019-01-24T04:32:09.902Z,85.41
2019-01-24T04:33:09.873Z,85.72
2019-01-24T04:34:09.859Z,85.30
2019-01-24T04:35:09.849Z,85.72
2019-01-24T04:36:09.840Z,85.19
2019-01-24T04:37:09.853Z,85.51
2019-01-24T04:38:09.814Z,85.61
2019-01-24T04:39:09.817Z,85.83
2019-01-24T04:40:09.803Z,85.36
2019-01-24T04:41:09.783Z,85.61
2019-01-24T04:42:09.795Z,85.72
2019-01-24T04:43:09.763Z,85.47
2019-01-24T04:44:09.755Z,85.58
2019-01-24T04:45:09.758Z,85.47
2019-01-24T04:46:09.820Z,86.15
2019-01-24T04:47:09.717Z,86.11
2019-01-24T04:48:09.721Z,86.00
2019-01-24T04:49:09.698Z,86.11
2019-01-24T04:50:09.687Z,85.58
2019-01-24T04:51:09.674Z,85.47
2019-01-24T04:52:09.730Z,85.58
2019-01-24T04:53:09.656Z,85.69
2019-01-24T04:54:09.652Z,85.05
2019-01-24T04:55:09.664Z,85.89
2019-01-24T04:56:09.620Z,86.43
2019-01-24T04:57:09.621Z,86.96
2019-01-24T04:58:09.598Z,85.86
2019-01-24T04:59:09.590Z,85.36
2019-01-24T05:00:09.628Z,85.69
2019-01-24T05:01:09.566Z,85.36
2019-01-24T05:02:09.557Z,85.36
2019-01-24T05:03:09.545Z,85.36
2019-01-24T05:04:09.566Z,85.58
2019-01-24T05:05:09.526Z,85.89
2019-01-24T05:06:09.514Z,85.96
2019-01-24T05:07:09.500Z,85.86
2019-01-24T05:08:09.525Z,85.36
2019-01-24T05:09:09.508Z,85.54
2019-01-24T05:10:09.470Z,85.54
2019-01-24T05:11:09.488Z,85.54
2019-01-24T05:12:09.451Z,85.22
2019-01-24T05:13:09.438Z,85.01
2019-01-24T05:14:09.424Z,85.22
2019-01-24T05:15:09.434Z,85.22
2019-01-24T05:16:09.418Z,85.01
2019-01-24T05:17:09.798Z,85.43
2019-01-24T05:18:09.447Z,84.80
2019-01-24T05:19:09.369Z,84.91
2019-01-24T05:20:09.361Z,85.01
2019-01-24T05:21:09.385Z,85.75
2019-01-24T05:22:09.339Z,85.86
2019-01-24T05:23:09.346Z,85.33
2019-01-24T05:24:09.315Z,84.91
2019-01-24T05:25:09.304Z,85.54
2019-01-24T05:26:09.324Z,84.91
2019-01-24T05:27:09.282Z,84.59
2019-01-24T05:28:09.298Z,85.43
2019-01-24T05:29:09.281Z,85.54
2019-01-24T05:30:09.251Z,85.43
2019-01-24T05:31:09.268Z,85.58
2019-01-24T05:32:09.261Z,85.75
2019-01-24T05:33:09.247Z,85.11
2019-01-24T05:34:09.206Z,85.43
2019-01-24T05:35:09.230Z,85.47
2019-01-24T05:36:09.211Z,85.54
2019-01-24T05:37:09.179Z,85.54
2019-01-24T05:38:09.176Z,85.64
2019-01-24T05:39:09.155Z,85.47
2019-01-24T05:40:09.160Z,85.33
2019-01-24T05:41:09.159Z,85.43
2019-01-24T05:42:09.119Z,85.64
2019-01-24T05:43:09.135Z,85.43
2019-01-24T05:44:09.102Z,85.54
2019-01-24T05:45:09.087Z,85.43
2019-01-24T05:46:09.121Z,85.96
2019-01-24T05:47:09.065Z,85.33
2019-01-24T05:48:09.061Z,85.58
2019-01-24T05:49:09.052Z,85.54
2019-01-24T05:50:09.052Z,85.43
2019-01-24T05:51:09.065Z,85.47
2019-01-24T05:52:09.010Z,85.54
2019-01-24T05:53:09.037Z,85.22
2019-01-24T05:54:08.989Z,85.16
2019-01-24T05:55:09.033Z,85.22
2019-01-24T05:56:08.996Z,85.36
2019-01-24T05:57:08.957Z,85.16
2019-01-24T05:58:08.946Z,85.47
2019-01-24T05:59:08.976Z,85.58
2019-01-24T06:00:08.927Z,85.69
2019-01-24T06:01:08.947Z,86.00
2019-01-24T06:02:08.905Z,85.79
2019-01-24T06:03:08.893Z,85.16
2019-01-24T06:04:08.882Z,85.69
2019-01-24T06:05:08.928Z,85.54
2019-01-24T06:06:08.862Z,85.36
2019-01-24T06:07:08.855Z,85.36
2019-01-24T06:08:08.903Z,85.16
2019-01-24T06:09:08.829Z,85.58
2019-01-24T06:10:08.818Z,85.64
2019-01-24T06:11:08.810Z,85.47
2019-01-24T06:12:08.822Z,85.43
2019-01-24T06:13:08.826Z,84.94
2019-01-24T06:14:08.772Z,85.58
2019-01-24T06:15:08.770Z,85.58
2019-01-24T06:16:08.754Z,85.58
2019-01-24T06:17:08.766Z,85.69
2019-01-24T06:18:08.761Z,85.26
2019-01-24T06:19:08.723Z,85.69
2019-01-24T06:20:08.754Z,85.33
2019-01-24T06:21:08.704Z,85.33
2019-01-24T06:22:08.686Z,85.69
2019-01-24T06:23:08.696Z,85.69
2019-01-24T06:24:08.675Z,85.11
2019-01-24T06:25:08.707Z,85.43
2019-01-24T06:26:08.643Z,85.22
2019-01-24T06:27:08.661Z,85.43
2019-01-24T06:28:08.620Z,85.01
2019-01-24T06:29:08.617Z,85.11
2019-01-24T06:30:08.644Z,85.05
2019-01-24T06:31:08.591Z,85.26
2019-01-24T06:32:08.578Z,85.05
2019-01-24T06:33:08.568Z,85.69
2019-01-24T06:34:08.562Z,85.47
2019-01-24T06:35:08.580Z,85.54
2019-01-24T06:36:08.558Z,85.22
2019-01-24T06:37:08.526Z,84.80
2019-01-24T06:38:08.518Z,84.80
2019-01-24T06:39:08.505Z,85.22
2019-01-24T06:40:08.523Z,84.63
2019-01-24T06:41:08.482Z,84.91
2019-01-24T06:42:08.495Z,84.41
2019-01-24T06:43:08.464Z,84.48
2019-01-24T06:44:08.468Z,84.73
2019-01-24T06:45:08.440Z,84.94
2019-01-24T06:46:08.427Z,84.91
2019-01-24T06:47:08.446Z,85.22
2019-01-24T06:48:08.416Z,84.91
2019-01-24T06:49:08.394Z,84.63
2019-01-24T06:50:08.389Z,84.27
2019-01-24T06:51:08.413Z,84.91
2019-01-24T06:52:08.361Z,84.91
2019-01-24T06:53:08.355Z,84.69
2019-01-24T06:54:08.374Z,84.38
2019-01-24T06:55:08.339Z,84.48
2019-01-24T06:56:08.371Z,84.38
2019-01-24T06:57:08.313Z,84.52
2019-01-24T06:58:08.305Z,84.38
2019-01-24T06:59:08.286Z,84.38
2019-01-24T07:00:08.276Z,84.59
2019-01-24T07:01:08.306Z,84.38
2019-01-24T07:02:08.256Z,84.06
2019-01-24T07:03:08.253Z,84.59
2019-01-24T07:04:08.256Z,84.38
2019-01-24T07:05:08.243Z,84.48
2019-01-24T07:06:08.219Z,83.42
2019-01-24T07:07:08.201Z,83.95
2019-01-24T07:08:08.214Z,84.27
2019-01-24T07:09:08.211Z,84.16
2019-01-24T07:10:08.169Z,83.84
2019-01-24T07:11:08.171Z,83.63
2019-01-24T07:12:08.145Z,83.42
2019-01-24T07:13:08.163Z,83.84
2019-01-24T07:14:08.138Z,83.74
2019-01-24T07:15:08.115Z,83.53
2019-01-24T07:16:08.105Z,83.84
2019-01-24T07:17:08.121Z,83.95
2019-01-24T07:18:08.113Z,83.53
2019-01-24T07:19:08.069Z,83.74
2019-01-24T07:20:08.081Z,83.31
2019-01-24T07:21:08.053Z,83.53
2019-01-24T07:22:08.037Z,83.59
2019-01-24T07:23:08.026Z,83.74
2019-01-24T07:24:08.040Z,83.74
2019-01-24T07:25:08.024Z,83.63
2019-01-24T07:26:07.995Z,83.31
2019-01-24T07:27:07.993Z,83.63
2019-01-24T07:28:07.972Z,83.42
2019-01-24T07:29:07.979Z,83.63
2019-01-24T07:30:07.958Z,83.53
2019-01-24T07:31:07.957Z,83.38
2019-01-24T07:32:07.929Z,83.31
2019-01-24T07:33:07.942Z,83.84
2019-01-24T07:34:07.919Z,83.59
2019-01-24T07:35:07.895Z,83.38
2019-01-24T07:36:07.916Z,83.21
2019-01-24T07:37:07.883Z,83.00
2019-01-24T07:38:07.880Z,83.00
2019-01-24T07:39:07.858Z,83.06
2019-01-24T07:40:07.902Z,82.89
2019-01-24T07:41:07.833Z,83.17
2019-01-24T07:42:07.826Z,82.68
2019-01-24T07:43:07.810Z,82.96
2019-01-24T07:44:07.801Z,82.86
2019-01-24T07:45:07.820Z,83.17
2019-01-24T07:46:07.778Z,82.43
2019-01-24T07:47:07.796Z,82.46
2019-01-24T07:48:07.776Z,82.78
2019-01-24T07:49:07.745Z,82.89
2019-01-24T07:50:07.736Z,82.89
2019-01-24T07:51:07.751Z,82.64
2019-01-24T07:52:07.717Z,83.06
2019-01-24T07:53:07.729Z,82.86
2019-01-24T07:54:07.742Z,82.43
2019-01-24T07:55:07.681Z,82.64
2019-01-24T07:56:07.669Z,82.75
2019-01-24T07:57:07.661Z,82.64
2019-01-24T07:58:07.646Z,82.53
2019-01-24T07:59:07.652Z,82.86
2019-01-24T08:00:07.652Z,82.68
2019-01-24T08:01:07.615Z,82.68
2019-01-24T08:02:07.610Z,82.46
2019-01-24T08:03:07.625Z,82.68
2019-01-24T08:04:07.584Z,82.43
2019-01-24T08:05:07.574Z,81.93
2019-01-24T08:06:09.120Z,82.15
2019-01-24T08:07:07.548Z,82.46
2019-01-24T08:08:07.564Z,82.43
2019-01-24T08:09:07.528Z,82.68
2019-01-24T08:10:07.539Z,82.32
2019-01-24T08:11:07.534Z,82.43
2019-01-24T08:12:07.508Z,82.32
2019-01-24T08:13:07.499Z,82.86
2019-01-24T08:14:07.491Z,82.43
2019-01-24T08:15:07.493Z,82.46
2019-01-24T08:16:07.454Z,82.64
2019-01-24T08:17:07.441Z,82.21
2019-01-24T08:18:07.444Z,82.43
2019-01-24T08:19:07.421Z,82.86
2019-01-24T08:20:07.431Z,83.17
2019-01-24T08:21:07.398Z,83.17
2019-01-24T08:22:07.387Z,83.06
2019-01-24T08:23:07.399Z,83.03
2019-01-24T08:24:07.375Z,82.92
2019-01-24T08:25:07.355Z,82.96
2019-01-24T08:26:07.343Z,82.96
2019-01-24T08:27:07.336Z,82.86
2019-01-24T08:28:07.354Z,82.53
2019-01-24T08:29:07.343Z,82.64
2019-01-24T08:30:07.305Z,82.43
2019-01-24T08:31:07.288Z,82.64
2019-01-24T08:32:07.281Z,82.75
2019-01-24T08:33:07.275Z,83.49
2019-01-24T08:34:07.279Z,83.49
2019-01-24T08:35:07.246Z,82.96
2019-01-24T08:36:07.234Z,83.17
2019-01-24T08:37:07.223Z,83.17
2019-01-24T08:38:07.214Z,82.96
2019-01-24T08:39:07.231Z,84.09
2019-01-24T08:40:07.215Z,83.66
2019-01-24T08:41:07.187Z,83.70
2019-01-24T08:42:07.171Z,83.45
2019-01-24T08:43:07.157Z,83.56
2019-01-24T08:44:07.169Z,83.56
2019-01-24T08:45:07.140Z,83.56
2019-01-24T08:46:07.125Z,83.66
2019-01-24T08:47:07.775Z,83.77
2019-01-24T08:48:07.105Z,83.66
2019-01-24T08:49:07.118Z,83.03
2019-01-24T08:50:07.088Z,83.03
2019-01-24T08:51:07.072Z,82.86
2019-01-24T08:52:07.100Z,82.96
2019-01-24T08:53:07.048Z,82.81
2019-01-24T08:54:07.038Z,82.50
2019-01-24T08:55:07.069Z,82.64
2019-01-24T08:56:07.022Z,83.17
2019-01-24T08:57:07.008Z,83.17
2019-01-24T08:58:07.020Z,83.17
2019-01-24T08:59:06.986Z,83.06
2019-01-24T09:00:06.974Z,83.59
2019-01-24T09:01:06.960Z,82.96
2019-01-24T09:02:06.952Z,83.38
2019-01-24T09:03:06.960Z,83.49
2019-01-24T09:04:06.942Z,83.59
2019-01-24T09:05:06.969Z,82.64
2019-01-24T09:06:06.909Z,82.53
2019-01-24T09:07:06.896Z,83.49
2019-01-24T09:08:06.884Z,83.81
2019-01-24T09:09:06.876Z,84.23
2019-01-24T09:10:06.887Z,84.34
2019-01-24T09:11:06.889Z,83.59
2019-01-24T09:12:06.841Z,83.49
2019-01-24T09:13:06.833Z,83.49
2019-01-24T09:14:06.822Z,83.56
2019-01-24T09:15:06.809Z,83.49
2019-01-24T09:16:06.834Z,83.56
2019-01-24T09:17:06.816Z,84.23
2019-01-24T09:18:06.778Z,84.23
2019-01-24T09:19:06.769Z,84.09
2019-01-24T09:20:06.821Z,84.41
2019-01-24T09:21:06.761Z,84.09
2019-01-24T09:22:06.756Z,83.45
2019-01-24T09:23:06.728Z,84.30
2019-01-24T09:24:06.713Z,84.19
2019-01-24T09:25:06.700Z,84.09
2019-01-24T09:26:06.690Z,84.30
2019-01-24T09:27:06.696Z,84.30
2019-01-24T09:28:06.683Z,84.19
2019-01-24T09:29:06.699Z,84.16
2019-01-24T09:30:06.645Z,84.61
2019-01-24T09:31:06.657Z,85.14
2019-01-24T09:32:06.623Z,84.30
2019-01-24T09:33:06.634Z,84.19
2019-01-24T09:34:06.602Z,83.24
2019-01-24T09:35:06.594Z,84.09
2019-01-24T09:36:06.581Z,84.19
2019-01-24T09:37:06.625Z,84.30
2019-01-24T09:38:06.559Z,84.09
2019-01-24T09:39:06.547Z,83.94
2019-01-24T09:40:06.559Z,84.09
2019-01-24T09:41:06.531Z,83.98
2019-01-24T09:42:06.513Z,84.19
2019-01-24T09:43:06.521Z,84.19
2019-01-24T09:44:06.515Z,84.23
2019-01-24T09:45:06.510Z,84.23
2019-01-24T09:46:06.479Z,84.34
2019-01-24T09:47:06.484Z,85.14
2019-01-24T09:48:06.448Z,85.36
2019-01-24T09:49:06.438Z,85.04
2019-01-24T09:50:06.452Z,85.25
2019-01-24T09:51:06.456Z,85.14
2019-01-24T09:52:06.407Z,85.57
2019-01-24T09:53:06.395Z,85.53
2019-01-24T09:54:06.383Z,85.25
2019-01-24T09:55:06.372Z,85.53
2019-01-24T09:56:06.393Z,85.74
2019-01-24T09:57:06.352Z,85.42
2019-01-24T09:58:06.387Z,85.53
2019-01-24T09:59:06.332Z,85.42
2019-01-24T10:00:06.318Z,85.07
2019-01-24T10:01:06.334Z,84.96
2019-01-24T10:02:06.297Z,84.16
2019-01-24T10:03:06.300Z,84.36
2019-01-24T10:04:06.276Z,84.01
2019-01-24T10:05:06.307Z,84.16
2019-01-24T10:06:06.254Z,83.91
2019-01-24T10:07:06.248Z,84.33
2019-01-24T10:08:06.233Z,84.22
2019-01-24T10:09:06.254Z,83.94
2019-01-24T10:10:06.211Z,84.16
2019-01-24T10:11:06.199Z,83.80
2019-01-24T10:12:06.214Z,84.12
2019-01-24T10:13:06.181Z,84.01
2019-01-24T10:14:06.193Z,83.91
2019-01-24T10:15:06.159Z,84.01
2019-01-24T10:16:06.146Z,84.33
2019-01-24T10:17:06.133Z,84.22
2019-01-24T10:18:06.136Z,84.22
2019-01-24T10:19:06.142Z,84.33
2019-01-24T10:20:06.102Z,84.54
2019-01-24T10:21:06.091Z,84.75
2019-01-24T10:22:06.079Z,85.17
2019-01-24T10:23:06.074Z,84.75
2019-01-24T10:24:06.099Z,84.01
2019-01-24T10:25:06.055Z,84.22
2019-01-24T10:26:06.036Z,84.01
2019-01-24T10:27:06.051Z,84.01
2019-01-24T10:28:06.015Z,84.08
2019-01-24T10:29:06.025Z,84.44
2019-01-24T10:30:05.999Z,84.12
2019-01-24T10:31:05.985Z,84.01
2019-01-24T10:32:05.979Z,84.96
2019-01-24T10:33:05.993Z,85.07
2019-01-24T10:34:05.948Z,85.35
2019-01-24T10:35:05.937Z,85.17
2019-01-24T10:36:05.929Z,84.50
2019-01-24T10:37:05.939Z,84.33
2019-01-24T10:38:05.924Z,85.28
2019-01-24T10:39:05.912Z,84.29
2019-01-24T10:40:05.910Z,85.35
2019-01-24T10:41:05.872Z,85.24
2019-01-24T10:42:05.861Z,85.21
2019-01-24T10:43:05.865Z,85.52
2019-01-24T10:44:05.859Z,84.99
2019-01-24T10:45:05.849Z,85.21
2019-01-24T10:46:05.817Z,85.16
2019-01-24T10:47:05.812Z,84.57
2019-01-24T10:48:05.823Z,83.90
2019-01-24T10:49:05.803Z,84.42
2019-01-24T10:50:05.774Z,84.11
2019-01-24T10:51:05.766Z,83.79
2019-01-24T10:52:05.774Z,84.11
2019-01-24T10:53:05.830Z,84.74
2019-01-24T10:54:05.739Z,84.17
2019-01-24T10:55:05.755Z,84.39
2019-01-24T10:56:05.712Z,84.07
2019-01-24T10:57:05.786Z,84.35
2019-01-24T10:58:05.719Z,84.07
2019-01-24T10:59:05.680Z,83.44
2019-01-24T11:00:05.666Z,83.37
2019-01-24T11:01:05.655Z,83.58
2019-01-24T11:02:05.658Z,84.11
2019-01-24T11:03:05.712Z,84.17
2019-01-24T11:04:05.622Z,84.81
2019-01-24T11:05:05.609Z,84.39
2019-01-24T11:06:05.603Z,84.70
2019-01-24T11:07:05.588Z,83.44
2019-01-24T11:08:05.605Z,83.01
2019-01-24T11:09:05.582Z,83.37
2019-01-24T11:10:05.580Z,82.91
2019-01-24T11:11:05.548Z,83.44
2019-01-24T11:12:05.535Z,83.47
2019-01-24T11:13:05.526Z,83.65
2019-01-24T11:14:05.524Z,83.65
2019-01-24T11:15:05.516Z,83.69
2019-01-24T11:16:05.491Z,84.17
2019-01-24T11:17:05.483Z,84.14
2019-01-24T11:18:05.498Z,83.93
2019-01-24T11:19:05.461Z,82.98
2019-01-24T11:20:05.475Z,82.87
2019-01-24T11:21:05.439Z,82.66
2019-01-24T11:22:05.425Z,82.34
2019-01-24T11:23:05.431Z,82.98
2019-01-24T11:24:05.407Z,83.15
2019-01-24T11:25:05.439Z,82.24
2019-01-24T11:26:05.384Z,82.66
2019-01-24T11:27:05.371Z,81.88
2019-01-24T11:28:05.364Z,82.62
2019-01-24T11:29:05.352Z,82.24
2019-01-24T11:30:05.363Z,81.99
2019-01-24T11:31:05.333Z,82.34
2019-01-24T11:32:05.339Z,82.24
2019-01-24T11:33:05.310Z,82.03
2019-01-24T11:34:05.296Z,82.56
2019-01-24T11:35:05.306Z,82.41
2019-01-24T11:36:05.302Z,82.31
2019-01-24T11:37:05.262Z,82.56
2019-01-24T11:38:05.252Z,82.83
2019-01-24T11:39:05.239Z,83.47
2019-01-24T11:40:05.237Z,83.33
2019-01-24T11:41:05.244Z,82.20
2019-01-24T11:42:05.206Z,82.41
2019-01-24T11:43:05.199Z,82.73
2019-01-24T11:44:05.199Z,83.47
2019-01-24T11:45:05.174Z,84.06
2019-01-24T11:46:05.162Z,83.53
2019-01-24T11:47:05.192Z,82.59
2019-01-24T11:48:05.143Z,82.37
2019-01-24T11:49:05.133Z,83.33
2019-01-24T11:50:05.119Z,82.79
2019-01-24T11:51:05.125Z,82.59
2019-01-24T11:52:05.112Z,82.20
2019-01-24T11:53:05.122Z,82.41
2019-01-24T11:54:05.075Z,82.62
2019-01-24T11:55:05.067Z,83.47
2019-01-24T11:56:06.296Z,82.94
2019-01-24T11:57:05.043Z,82.94
2019-01-24T11:58:05.048Z,82.73
2019-01-24T11:59:05.022Z,83.26
2019-01-24T12:00:05.033Z,82.98
2019-01-24T12:01:05.004Z,83.29
2019-01-24T12:02:04.998Z,83.29
2019-01-24T12:03:04.980Z,83.82
2019-01-24T12:04:04.988Z,84.14
2019-01-24T12:05:04.958Z,83.89
2019-01-24T12:06:04.948Z,83.78
2019-01-24T12:07:04.934Z,83.95
2019-01-24T12:08:04.952Z,84.00
2019-01-24T12:09:04.942Z,83.15
2019-01-24T12:10:04.901Z,83.26
2019-01-24T12:11:04.921Z,83.47
2019-01-24T12:12:04.879Z,83.15
2019-01-24T12:13:04.871Z,83.89
2019-01-24T12:14:04.911Z,83.89
2019-01-24T12:15:04.847Z,83.68
2019-01-24T12:16:04.875Z,83.75
2019-01-24T12:17:04.825Z,84.06
2019-01-24T12:18:04.819Z,83.22
2019-01-24T12:19:04.801Z,83.33
2019-01-24T12:20:04.795Z,83.01
2019-01-24T12:21:04.803Z,83.53
2019-01-24T12:22:04.771Z,82.73
2019-01-24T12:23:04.769Z,83.53
2019-01-24T12:24:04.752Z,83.75
2019-01-24T12:25:04.738Z,83.75
2019-01-24T12:26:04.751Z,83.53
2019-01-24T12:27:04.720Z,82.90
2019-01-24T12:28:04.728Z,83.53
2019-01-24T12:29:04.694Z,83.64
2019-01-24T12:30:04.684Z,84.06
2019-01-24T12:31:04.672Z,83.92
2019-01-24T12:32:04.694Z,83.81
2019-01-24T12:33:04.667Z,83.18
2019-01-24T12:34:04.640Z,82.86
2019-01-24T12:35:04.634Z,83.29
2019-01-24T12:36:04.616Z,82.59
2019-01-24T12:37:11.122Z,83.29
2019-01-24T12:38:05.601Z,83.92
2019-01-24T12:39:04.611Z,83.18
2019-01-24T12:40:04.578Z,83.07
2019-01-24T12:41:04.589Z,82.48
2019-01-24T12:42:04.550Z,83.22
2019-01-24T12:43:04.540Z,83.60
2019-01-24T12:44:04.547Z,83.50
2019-01-24T12:45:04.525Z,83.60
2019-01-24T12:46:04.525Z,83.07
2019-01-24T12:47:04.497Z,83.07
2019-01-24T12:48:04.493Z,84.23
2019-01-24T12:49:04.509Z,83.81
2019-01-24T12:50:04.465Z,83.07
2019-01-24T12:51:04.459Z,82.86
2019-01-24T12:52:04.443Z,82.97